createdAt,value
2023-03-02T00:01:52.624Z,102870.25
2023-03-02T00:04:45.792Z,102868.56
2023-03-02T00:07:16.966Z,102873.75
2023-03-02T00:09:44.572Z,102868.69
2023-03-02T00:12:13.086Z,102876.72
2023-03-02T00:14:40.439Z,102861.88
2023-03-02T00:17:10.940Z,102874.88
2023-03-02T00:19:39.060Z,102867.09
2023-03-02T00:22:06.610Z,102855.91
2023-03-02T00:24:33.950Z,102859.28
2023-03-02T00:27:01.218Z,102851.38
2023-03-02T00:29:29.607Z,102845.28
2023-03-02T00:31:57.152Z,102838.28
2023-03-02T00:34:24.400Z,102838.06
2023-03-02T00:36:51.582Z,102831.88
2023-03-02T00:39:20.296Z,102828.34
2023-03-02T00:41:48.712Z,102835.13
2023-03-02T00:44:19.743Z,102834.91
2023-03-02T00:46:47.087Z,102832.22
2023-03-02T00:49:14.860Z,102834.69
2023-03-02T00:51:42.055Z,102831.88
2023-03-02T00:54:09.530Z,102840.56
2023-03-02T00:56:37.261Z,102838.75
2023-03-02T00:59:11.185Z,102832.66
2023-03-02T01:01:38.878Z,102829.28
2023-03-02T01:04:06.285Z,102822.50
2023-03-02T01:06:33.913Z,102822.59
2023-03-02T01:09:03.239Z,102824.28
2023-03-02T01:11:30.544Z,102819.22
2023-03-02T01:13:57.808Z,102812.44
2023-03-02T01:16:25.066Z,102810.53
2023-03-02T01:18:52.307Z,102812.31
2023-03-02T01:21:19.647Z,102801.72
2023-03-02T01:23:46.879Z,102804.41
2023-03-02T01:26:14.124Z,102801.59
2023-03-02T01:28:41.529Z,102798.19
2023-03-02T01:31:08.839Z,102803.41
2023-03-02T01:33:36.430Z,102798.19
2023-03-02T01:36:04.217Z,102791.34
2023-03-02T01:38:31.554Z,102795.59
2023-03-02T01:40:59.003Z,102786.81
2023-03-02T01:43:26.567Z,102793.81
2023-03-02T01:45:57.414Z,102786.91
2023-03-02T01:48:46.080Z,102784.09
2023-03-02T01:51:21.142Z,102778.00
2023-03-02T01:53:54.549Z,102778.00
2023-03-02T01:56:34.963Z,102784.78
2023-03-02T01:59:07.737Z,102776.88
2023-03-02T02:01:37.689Z,102782.06
2023-03-02T02:04:06.462Z,102775.19
2023-03-02T02:06:54.189Z,102774.38
2023-03-02T02:09:24.396Z,102772.38
2023-03-02T02:11:52.582Z,102775.53
2023-03-02T02:14:20.354Z,102766.75
2023-03-02T02:16:48.755Z,102773.59
2023-03-02T02:19:38.536Z,102766.63
2023-03-02T02:22:06.176Z,102767.28
2023-03-02T02:24:45.237Z,102766.28
2023-03-02T02:27:13.671Z,102764.69
2023-03-02T02:29:49.623Z,102761.31
2023-03-02T02:32:26.636Z,102759.72
2023-03-02T02:35:01.151Z,102771.81
2023-03-02T02:37:32.336Z,102776.91
2023-03-02T02:40:07.333Z,102776.59
2023-03-02T02:42:43.466Z,102766.75
2023-03-02T02:45:24.394Z,102770.81
2023-03-02T02:47:52.499Z,102782.78
2023-03-02T02:50:30.991Z,102786.88
2023-03-02T02:53:06.521Z,102778.97
2023-03-02T02:55:35.516Z,102784.16
2023-03-02T02:58:10.226Z,102773.53
2023-03-02T03:00:37.771Z,102770.81
2023-03-02T03:03:29.467Z,102777.41
2023-03-02T03:06:01.661Z,102765.66
2023-03-02T03:09:00.894Z,102772.19
2023-03-02T03:11:49.021Z,102773.66
2023-03-02T03:14:20.188Z,102775.59
2023-03-02T03:16:51.103Z,102778.97
2023-03-02T03:19:18.629Z,102780.53
2023-03-02T03:21:48.961Z,102776.38
2023-03-02T03:24:16.804Z,102779.97
2023-03-02T03:26:44.422Z,102773.78
2023-03-02T03:29:14.239Z,102779.19
2023-03-02T03:31:41.817Z,102771.88
2023-03-02T03:34:10.253Z,102772.63
2023-03-02T03:36:38.445Z,102769.03
2023-03-02T03:39:06.565Z,102770.72
2023-03-02T03:41:34.872Z,102775.13
2023-03-02T03:44:03.495Z,102765.31
2023-03-02T03:46:34.202Z,102760.91
2023-03-02T03:49:02.518Z,102768.72
2023-03-02T03:51:35.162Z,102763.53
2023-03-02T03:54:06.061Z,102756.75
2023-03-02T03:56:44.938Z,102761.38
2023-03-02T03:59:23.348Z,102761.38
2023-03-02T04:01:58.646Z,102758.88
2023-03-02T04:04:33.468Z,102765.88
2023-03-02T04:07:03.299Z,102767.69
2023-03-02T04:09:32.321Z,102758.00
2023-03-02T04:11:59.996Z,102768.47
2023-03-02T04:14:28.188Z,102771.88
2023-03-02T04:16:56.529Z,102763.97
2023-03-02T04:19:26.173Z,102768.25
2023-03-02T04:21:58.476Z,102773.22
2023-03-02T04:24:29.258Z,102769.47
2023-03-02T04:26:59.875Z,102772.19
2023-03-02T04:29:27.461Z,102771.44
2023-03-02T04:31:55.060Z,102774.09
2023-03-02T04:34:25.678Z,102775.69
2023-03-02T04:36:54.350Z,102766.88
2023-03-02T04:39:22.324Z,102773.78
2023-03-02T04:41:52.827Z,102775.47
2023-03-02T04:44:20.652Z,102770.41
2023-03-02T04:46:49.643Z,102773.66
2023-03-02T04:49:19.115Z,102767.69
2023-03-02T04:51:48.403Z,102768.47
2023-03-02T04:54:22.274Z,102780.53
2023-03-02T04:56:51.625Z,102781.25
2023-03-02T04:59:20.991Z,102771.38
2023-03-02T05:01:49.578Z,102772.31
2023-03-02T05:04:16.984Z,102776.03
2023-03-02T05:06:44.612Z,102777.84
2023-03-02T05:09:12.264Z,102777.84
2023-03-02T05:11:41.147Z,102781.13
2023-03-02T05:14:11.894Z,102778.28
2023-03-02T05:16:41.540Z,102781.31
2023-03-02T05:19:11.533Z,102784.59
2023-03-02T05:21:39.493Z,102777.38
2023-03-02T05:24:07.090Z,102780.06
2023-03-02T05:26:34.651Z,102785.94
2023-03-02T05:29:02.086Z,102780.63
2023-03-02T05:31:55.869Z,102771.81
2023-03-02T05:34:23.202Z,102782.09
2023-03-02T05:36:51.815Z,102789.88
2023-03-02T05:39:19.271Z,102778.47
2023-03-02T05:41:46.542Z,102771.13
2023-03-02T05:44:13.874Z,102772.59
2023-03-02T05:46:41.693Z,102783.78
2023-03-02T05:49:09.103Z,102792.31
2023-03-02T05:51:36.330Z,102778.56
2023-03-02T05:54:03.757Z,102780.38
2023-03-02T05:56:31.507Z,102774.41
2023-03-02T05:58:59.032Z,102778.91
2023-03-02T06:01:26.289Z,102778.25
2023-03-02T06:03:53.540Z,102777.34
2023-03-02T06:06:20.791Z,102785.47
2023-03-02T06:08:48.244Z,102775.53
2023-03-02T06:11:15.495Z,102774.59
2023-03-02T06:13:42.712Z,102777.44
2023-03-02T06:16:10.818Z,102780.03
2023-03-02T06:18:41.232Z,102779.91
2023-03-02T06:21:09.008Z,102777.44
2023-03-02T06:23:36.431Z,102769.91
2023-03-02T06:26:12.090Z,102772.97
2023-03-02T06:28:51.500Z,102769.00
2023-03-02T06:31:19.995Z,102768.34
2023-03-02T06:33:47.323Z,102767.66
2023-03-02T06:36:17.370Z,102771.06
2023-03-02T06:38:44.671Z,102762.91
2023-03-02T06:41:11.993Z,102759.31
2023-03-02T06:43:39.813Z,102759.75
2023-03-02T06:46:07.210Z,102770.81
2023-03-02T06:48:34.586Z,102773.72
2023-03-02T06:51:01.943Z,102762.19
2023-03-02T06:53:29.691Z,102766.13
2023-03-02T06:55:57.061Z,102761.28
2023-03-02T06:58:24.535Z,102768.69
2023-03-02T07:00:51.886Z,102765.19
2023-03-02T07:03:19.258Z,102768.81
2023-03-02T07:05:48.973Z,102770.72
2023-03-02T07:08:16.478Z,102774.34
2023-03-02T07:10:43.938Z,102772.75
2023-03-02T07:13:11.238Z,102781.22
2023-03-02T07:15:41.730Z,102775.91
2023-03-02T07:18:09.137Z,102779.75
2023-03-02T07:20:36.699Z,102773.41
2023-03-02T07:23:05.446Z,102788.84
2023-03-02T07:25:33.590Z,102777.88
2023-03-02T07:28:00.844Z,102777.75
2023-03-02T07:30:28.358Z,102778.78
2023-03-02T07:32:55.675Z,102779.69
2023-03-02T07:35:23.144Z,102772.13
2023-03-02T07:37:52.275Z,102775.75
2023-03-02T07:40:20.599Z,102772.72
2023-03-02T07:42:47.900Z,102769.38
2023-03-02T07:45:16.937Z,102769.59
2023-03-02T07:47:44.256Z,102770.84
2023-03-02T07:50:12.437Z,102767.56
2023-03-02T07:52:40.106Z,102762.63
2023-03-02T07:55:07.798Z,102756.25
2023-03-02T07:57:35.273Z,102763.59
2023-03-02T08:00:04.055Z,102768.66
2023-03-02T08:02:41.072Z,102771.25
2023-03-02T08:05:09.871Z,102767.19
2023-03-02T08:07:37.570Z,102778.34
2023-03-02T08:10:05.713Z,102779.22
2023-03-02T08:12:35.750Z,102782.06
2023-03-02T08:15:04.950Z,102771.38
2023-03-02T08:17:32.824Z,102765.19
2023-03-02T08:20:00.239Z,102757.19
2023-03-02T08:22:27.566Z,102765.06
2023-03-02T08:24:54.970Z,102757.97
2023-03-02T08:27:23.523Z,102766.88
2023-03-02T08:29:50.915Z,102760.34
2023-03-02T08:32:18.345Z,102762.84
2023-03-02T08:34:45.874Z,102760.00
2023-03-02T08:37:13.111Z,102753.22
2023-03-02T08:39:40.332Z,102754.59
2023-03-02T08:42:08.222Z,102762.38
2023-03-02T08:44:35.727Z,102759.09
2023-03-02T08:47:03.191Z,102755.03
2023-03-02T08:49:30.811Z,102753.91
2023-03-02T08:51:59.474Z,102763.72
2023-03-02T08:54:29.345Z,102762.50
2023-03-02T08:56:56.618Z,102752.69
2023-03-02T08:59:24.069Z,102762.16
2023-03-02T09:01:53.055Z,102754.34
2023-03-02T09:04:20.401Z,102750.31
2023-03-02T09:06:48.658Z,102757.75
2023-03-02T09:09:15.945Z,102746.13
2023-03-02T09:11:44.857Z,102749.63
2023-03-02T09:14:12.888Z,102751.19
2023-03-02T09:16:40.278Z,102744.19
2023-03-02T09:19:07.630Z,102743.13
2023-03-02T09:21:35.444Z,102740.78
2023-03-02T09:24:03.139Z,102751.91
2023-03-02T09:26:30.591Z,102747.06
2023-03-02T09:28:57.884Z,102742.50
2023-03-02T09:31:25.399Z,102743.16
2023-03-02T09:33:52.861Z,102749.78
2023-03-02T09:36:23.736Z,102743.09
2023-03-02T09:38:51.587Z,102746.69
2023-03-02T09:41:21.850Z,102752.78
2023-03-02T09:44:31.341Z,102749.88
2023-03-02T09:47:34.840Z,102753.38
2023-03-02T09:50:11.699Z,102754.16
2023-03-02T09:52:49.069Z,102746.59
2023-03-02T09:55:25.218Z,102748.72
2023-03-02T09:57:55.036Z,102750.25
2023-03-02T10:00:29.139Z,102748.97
2023-03-02T10:03:16.197Z,102745.91
2023-03-02T10:05:50.411Z,102737.72
2023-03-02T10:08:46.883Z,102742.13
2023-03-02T10:11:39.650Z,102751.72
2023-03-02T10:14:23.637Z,102755.34
2023-03-02T10:17:28.498Z,102740.13
2023-03-02T10:20:14.883Z,102740.53
2023-03-02T10:22:50.534Z,102745.84
2023-03-02T10:25:43.614Z,102746.25
2023-03-02T10:28:19.205Z,102748.81
2023-03-02T10:31:00.956Z,102752.00
2023-03-02T10:33:29.527Z,102758.22
2023-03-02T10:35:56.787Z,102756.69
2023-03-02T10:38:25.230Z,102756.69
2023-03-02T10:41:00.463Z,102763.13
2023-03-02T10:43:32.229Z,102761.63
2023-03-02T10:46:04.932Z,102761.31
2023-03-02T10:48:32.291Z,102763.09
2023-03-02T10:51:00.566Z,102765.59
2023-03-02T10:53:29.250Z,102764.00
2023-03-02T10:55:56.594Z,102760.63
2023-03-02T10:58:32.931Z,102759.78
2023-03-02T11:01:15.077Z,102750.41
2023-03-02T11:03:42.603Z,102749.41
2023-03-02T11:06:29.786Z,102739.91
2023-03-02T11:09:00.185Z,102751.03
2023-03-02T11:11:27.843Z,102762.44
2023-03-02T11:13:56.882Z,102757.72
2023-03-02T11:16:32.491Z,102758.22
2023-03-02T11:19:32.062Z,102743.06
2023-03-02T11:22:37.317Z,102738.34
2023-03-02T11:25:12.746Z,102736.34
2023-03-02T11:27:43.163Z,102741.06
2023-03-02T11:30:16.074Z,102730.28
2023-03-02T11:32:54.604Z,102727.16
2023-03-02T11:35:28.896Z,102723.88
2023-03-02T11:38:04.276Z,102724.97
2023-03-02T11:40:47.147Z,102725.25
2023-03-02T11:43:15.072Z,102717.63
2023-03-02T11:45:51.337Z,102723.41
2023-03-02T11:48:29.339Z,102719.38
2023-03-02T11:51:06.746Z,102726.59
2023-03-02T11:53:43.847Z,102721.59
2023-03-02T11:56:11.335Z,102719.59
2023-03-02T11:58:39.719Z,102724.03
2023-03-02T12:01:13.043Z,102719.78
2023-03-02T12:03:41.959Z,102715.66
2023-03-02T12:06:22.770Z,102711.63
2023-03-02T12:08:53.112Z,102710.00
2023-03-02T12:11:20.427Z,102713.84
2023-03-02T12:14:02.198Z,102709.16
2023-03-02T12:16:41.646Z,102703.47
2023-03-02T12:19:17.993Z,102698.44
2023-03-02T12:22:00.771Z,102705.97
2023-03-02T12:24:31.608Z,102708.09
2023-03-02T12:27:25.733Z,102691.50
2023-03-02T12:30:23.754Z,102688.44
2023-03-02T12:33:03.985Z,102690.75
2023-03-02T12:35:34.042Z,102681.38
2023-03-02T12:38:07.366Z,102686.09
2023-03-02T12:40:56.201Z,102669.38
2023-03-02T12:43:27.151Z,102671.56
2023-03-02T12:46:36.121Z,102670.22
2023-03-02T12:49:44.169Z,102670.63
2023-03-02T12:52:37.709Z,102666.38
2023-03-02T12:55:15.649Z,102656.88
2023-03-02T12:57:51.538Z,102651.75
2023-03-02T13:00:26.950Z,102657.38
2023-03-02T13:02:57.184Z,102641.50
2023-03-02T13:05:28.008Z,102641.50
2023-03-02T13:08:00.921Z,102633.97
2023-03-02T13:10:38.038Z,102634.06
2023-03-02T13:13:26.865Z,102638.59
2023-03-02T13:15:59.410Z,102643.06
2023-03-02T13:18:32.290Z,102638.91
2023-03-02T13:21:01.450Z,102636.78
2023-03-02T13:23:34.014Z,102636.78
2023-03-02T13:26:05.379Z,102633.00
2023-03-02T13:28:36.714Z,102640.72
2023-03-02T13:31:07.112Z,102634.50
2023-03-02T13:33:44.236Z,102622.50
2023-03-02T13:36:20.288Z,102621.81
2023-03-02T13:38:59.722Z,102625.34
2023-03-02T13:41:31.389Z,102626.47
2023-03-02T13:44:16.629Z,102622.63
2023-03-02T13:46:43.896Z,102624.44
2023-03-02T13:49:11.921Z,102625.41
2023-03-02T13:51:45.335Z,102619.44
2023-03-02T13:54:34.645Z,102616.69
2023-03-02T13:57:05.046Z,102617.56
2023-03-02T13:59:36.488Z,102612.34
2023-03-02T14:02:27.622Z,102612.34
2023-03-02T14:04:55.795Z,102602.38
2023-03-02T14:07:23.485Z,102600.44
2023-03-02T14:09:51.171Z,102588.06
2023-03-02T14:12:29.346Z,102590.84
2023-03-02T14:15:00.327Z,102582.22
2023-03-02T14:17:28.315Z,102584.81
2023-03-02T14:19:56.571Z,102581.28
2023-03-02T14:22:27.444Z,102584.97
2023-03-02T14:24:58.057Z,102579.91
2023-03-02T14:27:29.756Z,102581.69
2023-03-02T14:29:57.569Z,102576.41
2023-03-02T14:32:24.891Z,102579.91
2023-03-02T14:34:52.425Z,102571.16
2023-03-02T14:37:24.544Z,102579.66
2023-03-02T14:39:55.610Z,102575.16
2023-03-02T14:42:25.281Z,102577.69
2023-03-02T14:44:53.099Z,102571.56
2023-03-02T14:47:21.904Z,102574.84
2023-03-02T14:49:49.507Z,102573.88
2023-03-02T14:52:25.197Z,102577.38
2023-03-02T14:54:58.728Z,102570.22
2023-03-02T14:57:28.846Z,102570.94
2023-03-02T14:59:59.785Z,102564.50
2023-03-02T15:02:27.508Z,102567.84
2023-03-02T15:04:57.309Z,102570.38
2023-03-02T15:07:28.094Z,102581.56
2023-03-02T15:09:57.025Z,102573.25
2023-03-02T15:12:25.218Z,102574.06
2023-03-02T15:14:52.770Z,102584.09
2023-03-02T15:17:20.052Z,102577.63
2023-03-02T15:19:47.554Z,102572.34
2023-03-02T15:22:14.982Z,102574.03
2023-03-02T15:24:42.496Z,102571.19
2023-03-02T15:27:10.503Z,102575.16
2023-03-02T15:29:37.874Z,102571.50
2023-03-02T15:32:05.486Z,102567.00
2023-03-02T15:34:32.847Z,102569.63
2023-03-02T15:37:00.179Z,102565.38
2023-03-02T15:39:27.506Z,102566.28
2023-03-02T15:41:55.209Z,102559.34
2023-03-02T15:44:24.448Z,102561.13
2023-03-02T15:46:57.462Z,102562.84
2023-03-02T15:49:28.007Z,102557.44
2023-03-02T15:51:59.648Z,102557.41
2023-03-02T15:54:28.262Z,102559.00
2023-03-02T15:56:55.765Z,102563.25
2023-03-02T15:59:25.204Z,102553.44
2023-03-02T16:01:53.629Z,102554.19
2023-03-02T16:04:21.322Z,102560.94
2023-03-02T16:06:48.973Z,102554.75
2023-03-02T16:09:17.914Z,102563.28
2023-03-02T16:11:45.207Z,102556.19
2023-03-02T16:14:15.636Z,102559.56
2023-03-02T16:16:44.194Z,102564.69
2023-03-02T16:19:14.075Z,102569.81
2023-03-02T16:21:41.850Z,102561.88
2023-03-02T16:24:09.539Z,102561.66
2023-03-02T16:26:38.193Z,102565.00
2023-03-02T16:29:08.104Z,102563.84
2023-03-02T16:31:37.906Z,102582.75
2023-03-02T16:34:08.416Z,102576.44
2023-03-02T16:36:38.058Z,102573.66
2023-03-02T16:39:06.647Z,102576.81
2023-03-02T16:41:34.733Z,102574.75
2023-03-02T16:44:02.208Z,102579.63
2023-03-02T16:46:31.390Z,102574.13
2023-03-02T16:48:58.942Z,102578.09
2023-03-02T16:51:26.276Z,102582.16
2023-03-02T16:53:54.669Z,102586.13
2023-03-02T16:56:21.960Z,102580.72
2023-03-02T16:58:51.289Z,102586.56
2023-03-02T17:01:20.957Z,102582.78
2023-03-02T17:03:49.995Z,102592.03
2023-03-02T17:06:19.635Z,102584.75
2023-03-02T17:08:47.149Z,102588.91
2023-03-02T17:11:14.645Z,102585.22
2023-03-02T17:13:44.591Z,102585.75
2023-03-02T17:16:13.590Z,102598.56
2023-03-02T17:18:41.153Z,102597.47
2023-03-02T17:21:08.710Z,102602.44
2023-03-02T17:23:37.103Z,102600.53
2023-03-02T17:26:07.908Z,102601.03
2023-03-02T17:28:35.166Z,102606.09
2023-03-02T17:31:04.321Z,102600.56
2023-03-02T17:33:33.940Z,102608.22
2023-03-02T17:36:07.431Z,102607.81
2023-03-02T17:38:34.794Z,102607.66
2023-03-02T17:41:07.190Z,102613.47
2023-03-02T17:43:40.983Z,102615.00
2023-03-02T17:46:15.718Z,102618.09
2023-03-02T17:48:44.699Z,102623.94
2023-03-02T17:51:14.828Z,102615.03
2023-03-02T17:53:44.234Z,102619.94
2023-03-02T17:56:13.123Z,102625.84
2023-03-02T17:58:45.089Z,102623.88
2023-03-02T18:01:15.774Z,102627.97
2023-03-02T18:03:45.134Z,102619.84
2023-03-02T18:06:13.445Z,102616.06
2023-03-02T18:08:41.026Z,102623.56
2023-03-02T18:11:08.330Z,102631.09
2023-03-02T18:13:35.935Z,102634.31
2023-03-02T18:16:04.210Z,102631.28
2023-03-02T18:18:31.532Z,102630.28
2023-03-02T18:20:58.857Z,102642.09
2023-03-02T18:23:26.248Z,102636.59
2023-03-02T18:25:53.484Z,102638.09
2023-03-02T18:28:21.387Z,102645.72
2023-03-02T18:30:49.385Z,102634.28
2023-03-02T18:33:16.602Z,102641.91
2023-03-02T18:35:45.943Z,102641.69
2023-03-02T18:38:13.271Z,102646.78
2023-03-02T18:40:40.643Z,102648.47
2023-03-02T18:43:08.276Z,102655.19
2023-03-02T18:45:35.696Z,102661.09
2023-03-02T18:48:04.802Z,102646.88
2023-03-02T18:50:32.291Z,102655.16
2023-03-02T18:53:00.962Z,102658.94
2023-03-02T18:55:29.357Z,102664.81
2023-03-02T18:57:56.664Z,102661.03
2023-03-02T19:00:27.797Z,102667.59
2023-03-02T19:02:56.927Z,102665.72
2023-03-02T19:05:27.019Z,102670.09
2023-03-02T19:07:54.880Z,102660.59
2023-03-02T19:10:22.533Z,102666.00
2023-03-02T19:12:50.761Z,102662.63
2023-03-02T19:15:18.985Z,102661.94
2023-03-02T19:17:47.186Z,102661.22
2023-03-02T19:20:16.753Z,102667.22
2023-03-02T19:22:44.049Z,102660.31
2023-03-02T19:25:11.644Z,102653.34
2023-03-02T19:27:39.846Z,102660.56
2023-03-02T19:30:09.110Z,102660.66
2023-03-02T19:32:37.437Z,102653.75
2023-03-02T19:35:05.276Z,102655.47
2023-03-02T19:37:33.439Z,102663.94
2023-03-02T19:40:01.483Z,102657.84
2023-03-02T19:42:30.431Z,102662.16
2023-03-02T19:44:58.024Z,102659.63
2023-03-02T19:47:25.453Z,102658.72
2023-03-02T19:49:52.943Z,102661.22
2023-03-02T19:52:20.295Z,102669.84
2023-03-02T19:54:47.551Z,102663.75
2023-03-02T19:57:14.817Z,102667.34
2023-03-02T19:59:42.414Z,102667.41
2023-03-02T20:02:09.860Z,102666.34
2023-03-02T20:04:38.307Z,102672.31
2023-03-02T20:07:05.647Z,102675.03
2023-03-02T20:09:32.816Z,102675.03
2023-03-02T20:12:02.445Z,102685.63
2023-03-02T20:14:34.171Z,102672.63
2023-03-02T20:17:04.908Z,102672.63
2023-03-02T20:19:32.134Z,102687.22
2023-03-02T20:21:59.442Z,102680.22
2023-03-02T20:24:26.890Z,102688.03
2023-03-02T20:26:54.847Z,102679.53
2023-03-02T20:29:22.167Z,102677.81
2023-03-02T20:31:49.567Z,102678.75
2023-03-02T20:34:16.993Z,102681.22
2023-03-02T20:36:44.780Z,102689.03
2023-03-02T20:39:43.203Z,102676.03
2023-03-02T20:42:12.250Z,102679.53
2023-03-02T20:44:39.794Z,102692.75
2023-03-02T20:47:09.831Z,102692.41
2023-03-02T20:49:38.036Z,102703.53
2023-03-02T20:52:05.922Z,102695.59
2023-03-02T20:54:37.204Z,102704.00
2023-03-02T20:57:06.131Z,102707.38
2023-03-02T20:59:33.426Z,102702.19
2023-03-02T21:02:00.904Z,102700.28
2023-03-02T21:04:28.730Z,102700.28
2023-03-02T21:06:56.231Z,102692.25
2023-03-02T21:09:23.637Z,102688.00
2023-03-02T21:11:51.180Z,102692.25
2023-03-02T21:14:19.138Z,102686.75
2023-03-02T21:16:46.660Z,102687.47
2023-03-02T21:19:17.360Z,102694.34
2023-03-02T21:21:45.994Z,102688.34
2023-03-02T21:24:17.049Z,102688.25
2023-03-02T21:26:49.839Z,102680.44
2023-03-02T21:29:20.063Z,102677.84
2023-03-02T21:31:47.935Z,102683.94
2023-03-02T21:34:16.138Z,102681.25
2023-03-02T21:36:43.542Z,102680.34
2023-03-02T21:39:12.144Z,102675.94
2023-03-02T21:41:40.505Z,102676.06
2023-03-02T21:44:08.424Z,102672.53
2023-03-02T21:46:39.178Z,102669.06
2023-03-02T21:49:22.349Z,102673.47
2023-03-02T21:51:50.628Z,102676.94
2023-03-02T21:54:18.178Z,102669.16
2023-03-02T21:56:51.521Z,102679.66
2023-03-02T21:59:19.128Z,102674.47
2023-03-02T22:01:47.000Z,102678.97
2023-03-02T22:04:17.885Z,102676.38
2023-03-02T22:06:45.297Z,102680.66
2023-03-02T22:09:12.783Z,102682.34
2023-03-02T22:11:40.374Z,102670.06
2023-03-02T22:14:15.453Z,102673.34
2023-03-02T22:16:46.430Z,102672.44
2023-03-02T22:19:32.817Z,102668.16
2023-03-02T22:22:03.262Z,102683.84
2023-03-02T22:24:35.627Z,102675.25
2023-03-02T22:27:27.726Z,102674.47
2023-03-02T22:29:59.025Z,102666.69
2023-03-02T22:32:28.101Z,102671.88
2023-03-02T22:34:57.910Z,102661.56
2023-03-02T22:37:30.674Z,102668.56
2023-03-02T22:40:02.080Z,102652.19
2023-03-02T22:42:30.961Z,102658.41
2023-03-02T22:45:17.299Z,102655.19
2023-03-02T22:47:49.260Z,102646.69
2023-03-02T22:50:27.902Z,102650.41
2023-03-02T22:53:00.456Z,102638.41
2023-03-02T22:55:30.932Z,102642.94
2023-03-02T22:57:58.500Z,102648.22
2023-03-02T23:00:33.584Z,102650.75
2023-03-02T23:03:00.909Z,102651.53
2023-03-02T23:05:31.019Z,102649.72
2023-03-02T23:08:22.562Z,102653.25
2023-03-02T23:10:52.461Z,102645.44
2023-03-02T23:13:25.181Z,102649.81
2023-03-02T23:15:55.252Z,102654.25
2023-03-02T23:18:25.678Z,102649.81
2023-03-02T23:20:53.719Z,102647.22
2023-03-02T23:23:24.276Z,102647.22
2023-03-02T23:25:51.852Z,102648.34
2023-03-02T23:28:19.223Z,102648.34
2023-03-02T23:30:47.624Z,102648.66
2023-03-02T23:33:14.864Z,102637.44
2023-03-02T23:35:42.505Z,102646.25
2023-03-02T23:38:10.035Z,102635.97
2023-03-02T23:40:37.387Z,102646.56
2023-03-02T23:43:04.650Z,102633.66
2023-03-02T23:45:33.332Z,102644.16
2023-03-02T23:48:00.617Z,102643.38
2023-03-02T23:50:27.965Z,102639.06
2023-03-02T23:52:55.193Z,102638.19
2023-03-02T23:55:22.574Z,102631.97
2023-03-02T23:57:49.848Z,102632.88
